sensor_id;sensor_type;location;lat;lon;timestamp;temperature;humidity
19174;DHT22;9719;49.322;8.536;2022-09-09T00:02:30;18.00;78.20
19174;DHT22;9719;49.322;8.536;2022-09-09T00:07:40;18.00;78.30
19174;DHT22;9719;49.322;8.536;2022-09-09T00:12:51;17.90;78.70
19174;DHT22;9719;49.322;8.536;2022-09-09T00:17:59;17.90;78.80
19174;DHT22;9719;49.322;8.536;2022-09-09T00:23:09;18.00;78.60
19174;DHT22;9719;49.322;8.536;2022-09-09T00:28:18;18.00;78.80
19174;DHT22;9719;49.322;8.536;2022-09-09T00:33:23;18.00;78.80
19174;DHT22;9719;49.322;8.536;2022-09-09T00:38:33;18.00;78.70
19174;DHT22;9719;49.322;8.536;2022-09-09T00:43:37;18.00;78.50
19174;DHT22;9719;49.322;8.536;2022-09-09T00:48:50;18.10;78.80
19174;DHT22;9719;49.322;8.536;2022-09-09T00:54:14;18.10;78.80
19174;DHT22;9719;49.322;8.536;2022-09-09T00:59:28;18.00;78.70
19174;DHT22;9719;49.322;8.536;2022-09-09T01:04:37;18.10;79.00
19174;DHT22;9719;49.322;8.536;2022-09-09T01:09:45;18.00;78.80
19174;DHT22;9719;49.322;8.536;2022-09-09T01:14:56;18.00;79.00
19174;DHT22;9719;49.322;8.536;2022-09-09T01:20:04;18.00;79.20
19174;DHT22;9719;49.322;8.536;2022-09-09T01:25:22;18.00;79.20
19174;DHT22;9719;49.322;8.536;2022-09-09T01:30:28;18.10;79.40
19174;DHT22;9719;49.322;8.536;2022-09-09T01:35:37;18.10;79.40
19174;DHT22;9719;49.322;8.536;2022-09-09T01:40:41;18.10;79.60
19174;DHT22;9719;49.322;8.536;2022-09-09T01:45:46;18.10;79.60
19174;DHT22;9719;49.322;8.536;2022-09-09T01:50:49;18.20;79.60
19174;DHT22;9719;49.322;8.536;2022-09-09T01:56:01;18.20;79.70
19174;DHT22;9719;49.322;8.536;2022-09-09T02:01:11;18.20;79.80
19174;DHT22;9719;49.322;8.536;2022-09-09T02:06:27;18.30;79.90
19174;DHT22;9719;49.322;8.536;2022-09-09T02:11:30;18.30;79.90
19174;DHT22;9719;49.322;8.536;2022-09-09T02:16:39;18.40;79.60
19174;DHT22;9719;49.322;8.536;2022-09-09T02:21:44;18.50;79.50
19174;DHT22;9719;49.322;8.536;2022-09-09T02:26:49;18.50;79.40
19174;DHT22;9719;49.322;8.536;2022-09-09T02:31:55;18.60;79.30
19174;DHT22;9719;49.322;8.536;2022-09-09T02:37:00;18.60;79.20
19174;DHT22;9719;49.322;8.536;2022-09-09T02:42:04;18.50;79.30
19174;DHT22;9719;49.322;8.536;2022-09-09T02:47:18;18.50;79.40
19174;DHT22;9719;49.322;8.536;2022-09-09T02:52:26;18.50;79.60
19174;DHT22;9719;49.322;8.536;2022-09-09T02:57:31;18.50;79.50
19174;DHT22;9719;49.322;8.536;2022-09-09T03:02:36;18.40;79.50
19174;DHT22;9719;49.322;8.536;2022-09-09T03:07:39;18.40;79.60
19174;DHT22;9719;49.322;8.536;2022-09-09T03:12:42;18.30;79.80
19174;DHT22;9719;49.322;8.536;2022-09-09T03:17:45;18.20;79.80
19174;DHT22;9719;49.322;8.536;2022-09-09T03:22:47;18.10;80.00
19174;DHT22;9719;49.322;8.536;2022-09-09T03:27:49;18.10;80.10
19174;DHT22;9719;49.322;8.536;2022-09-09T03:32:55;18.10;80.30
19174;DHT22;9719;49.322;8.536;2022-09-09T03:37:57;18.10;80.30
19174;DHT22;9719;49.322;8.536;2022-09-09T03:42:59;18.00;80.10
19174;DHT22;9719;49.322;8.536;2022-09-09T03:48:02;18.00;80.30
19174;DHT22;9719;49.322;8.536;2022-09-09T03:53:05;18.00;80.50
19174;DHT22;9719;49.322;8.536;2022-09-09T03:58:07;18.10;80.50
19174;DHT22;9719;49.322;8.536;2022-09-09T04:03:11;18.10;80.50
19174;DHT22;9719;49.322;8.536;2022-09-09T04:08:13;18.10;80.50
19174;DHT22;9719;49.322;8.536;2022-09-09T04:13:15;18.10;80.40
19174;DHT22;9719;49.322;8.536;2022-09-09T04:18:20;18.10;80.30
19174;DHT22;9719;49.322;8.536;2022-09-09T04:23:22;18.10;80.20
19174;DHT22;9719;49.322;8.536;2022-09-09T04:28:26;18.10;80.20
19174;DHT22;9719;49.322;8.536;2022-09-09T04:33:30;18.10;80.10
19174;DHT22;9719;49.322;8.536;2022-09-09T04:38:32;18.10;80.20
19174;DHT22;9719;49.322;8.536;2022-09-09T04:43:34;18.10;80.20
19174;DHT22;9719;49.322;8.536;2022-09-09T04:48:37;18.10;80.20
19174;DHT22;9719;49.322;8.536;2022-09-09T04:53:40;18.10;80.20
19174;DHT22;9719;49.322;8.536;2022-09-09T04:58:42;18.10;80.10
19174;DHT22;9719;49.322;8.536;2022-09-09T05:03:48;18.10;80.30
19174;DHT22;9719;49.322;8.536;2022-09-09T05:08:50;18.10;80.20
19174;DHT22;9719;49.322;8.536;2022-09-09T05:13:53;18.10;80.30
19174;DHT22;9719;49.322;8.536;2022-09-09T05:18:56;18.10;80.30
19174;DHT22;9719;49.322;8.536;2022-09-09T05:23:59;18.10;80.30
19174;DHT22;9719;49.322;8.536;2022-09-09T05:29:02;18.10;80.10
19174;DHT22;9719;49.322;8.536;2022-09-09T05:34:05;18.10;80.10
19174;DHT22;9719;49.322;8.536;2022-09-09T05:39:07;18.10;80.10
19174;DHT22;9719;49.322;8.536;2022-09-09T05:44:09;18.10;80.10
19174;DHT22;9719;49.322;8.536;2022-09-09T05:49:12;18.10;80.20
19174;DHT22;9719;49.322;8.536;2022-09-09T05:54:16;18.20;80.10
19174;DHT22;9719;49.322;8.536;2022-09-09T05:59:18;18.20;80.30
19174;DHT22;9719;49.322;8.536;2022-09-09T06:04:21;18.20;80.20
19174;DHT22;9719;49.322;8.536;2022-09-09T06:09:24;18.30;80.30
19174;DHT22;9719;49.322;8.536;2022-09-09T06:14:27;18.40;80.10
19174;DHT22;9719;49.322;8.536;2022-09-09T06:19:30;18.50;80.10
19174;DHT22;9719;49.322;8.536;2022-09-09T06:24:32;18.60;80.00
19174;DHT22;9719;49.322;8.536;2022-09-09T06:29:34;18.70;79.90
19174;DHT22;9719;49.322;8.536;2022-09-09T06:34:37;18.80;79.60
19174;DHT22;9719;49.322;8.536;2022-09-09T06:39:39;18.90;79.50
19174;DHT22;9719;49.322;8.536;2022-09-09T06:44:41;19.00;79.30
19174;DHT22;9719;49.322;8.536;2022-09-09T06:49:44;19.10;79.20
19174;DHT22;9719;49.322;8.536;2022-09-09T06:54:46;19.20;78.80
19174;DHT22;9719;49.322;8.536;2022-09-09T06:59:48;19.30;78.60
19174;DHT22;9719;49.322;8.536;2022-09-09T07:04:51;19.40;78.40
19174;DHT22;9719;49.322;8.536;2022-09-09T07:09:53;19.40;78.00
19174;DHT22;9719;49.322;8.536;2022-09-09T07:14:55;19.40;77.80
19174;DHT22;9719;49.322;8.536;2022-09-09T07:19:58;19.50;78.10
19174;DHT22;9719;49.322;8.536;2022-09-09T07:25:00;19.60;78.00
19174;DHT22;9719;49.322;8.536;2022-09-09T07:30:03;19.80;77.40
19174;DHT22;9719;49.322;8.536;2022-09-09T07:35:07;20.00;77.10
19174;DHT22;9719;49.322;8.536;2022-09-09T07:40:09;20.20;77.00
19174;DHT22;9719;49.322;8.536;2022-09-09T07:45:11;20.40;76.50
19174;DHT22;9719;49.322;8.536;2022-09-09T07:50:15;20.60;75.70
19174;DHT22;9719;49.322;8.536;2022-09-09T07:55:16;20.80;75.40
19174;DHT22;9719;49.322;8.536;2022-09-09T08:00:19;21.00;74.90
19174;DHT22;9719;49.322;8.536;2022-09-09T08:05:24;21.30;74.20
19174;DHT22;9719;49.322;8.536;2022-09-09T08:10:26;21.40;72.90
19174;DHT22;9719;49.322;8.536;2022-09-09T08:15:27;21.50;72.60
19174;DHT22;9719;49.322;8.536;2022-09-09T08:20:32;21.40;72.20
19174;DHT22;9719;49.322;8.536;2022-09-09T08:25:33;21.50;72.20
19174;DHT22;9719;49.322;8.536;2022-09-09T08:30:35;21.50;71.50
19174;DHT22;9719;49.322;8.536;2022-09-09T08:35:39;21.60;71.60
19174;DHT22;9719;49.322;8.536;2022-09-09T08:40:46;21.50;71.50
19174;DHT22;9719;49.322;8.536;2022-09-09T08:45:57;21.60;71.40
19174;DHT22;9719;49.322;8.536;2022-09-09T08:51:03;21.40;71.70
19174;DHT22;9719;49.322;8.536;2022-09-09T08:56:11;21.50;71.60
19174;DHT22;9719;49.322;8.536;2022-09-09T09:01:29;21.50;71.60
19174;DHT22;9719;49.322;8.536;2022-09-09T09:06:45;21.60;70.90
19174;DHT22;9719;49.322;8.536;2022-09-09T09:11:52;21.70;70.50
19174;DHT22;9719;49.322;8.536;2022-09-09T09:16:58;21.90;71.10
19174;DHT22;9719;49.322;8.536;2022-09-09T09:22:10;22.10;70.30
19174;DHT22;9719;49.322;8.536;2022-09-09T09:27:18;22.50;70.40
19174;DHT22;9719;49.322;8.536;2022-09-09T09:32:22;23.00;68.30
19174;DHT22;9719;49.322;8.536;2022-09-09T09:37:30;23.40;68.50
19174;DHT22;9719;49.322;8.536;2022-09-09T09:42:34;24.20;67.60
19174;DHT22;9719;49.322;8.536;2022-09-09T09:47:36;24.80;64.90
19174;DHT22;9719;49.322;8.536;2022-09-09T09:52:41;24.70;63.70
19174;DHT22;9719;49.322;8.536;2022-09-09T09:57:45;24.00;64.40
19174;DHT22;9719;49.322;8.536;2022-09-09T10:02:47;23.40;65.80
19174;DHT22;9719;49.322;8.536;2022-09-09T10:08:04;23.70;69.00
19174;DHT22;9719;49.322;8.536;2022-09-09T10:13:11;25.00;65.30
19174;DHT22;9719;49.322;8.536;2022-09-09T10:18:26;26.20;61.90
19174;DHT22;9719;49.322;8.536;2022-09-09T10:23:51;26.60;58.80
19174;DHT22;9719;49.322;8.536;2022-09-09T10:34:57;26.20;60.60
19174;DHT22;9719;49.322;8.536;2022-09-09T10:40:17;27.10;59.00
19174;DHT22;9719;49.322;8.536;2022-09-09T10:45:29;27.70;57.80
19174;DHT22;9719;49.322;8.536;2022-09-09T10:50:45;28.20;55.80
19174;DHT22;9719;49.322;8.536;2022-09-09T10:55:55;28.40;54.30
19174;DHT22;9719;49.322;8.536;2022-09-09T11:01:01;28.60;53.20
19174;DHT22;9719;49.322;8.536;2022-09-09T11:06:13;28.40;52.60
19174;DHT22;9719;49.322;8.536;2022-09-09T11:11:24;28.20;52.30
19174;DHT22;9719;49.322;8.536;2022-09-09T11:16:30;28.00;52.70
19174;DHT22;9719;49.322;8.536;2022-09-09T11:21:36;27.70;52.10
19174;DHT22;9719;49.322;8.536;2022-09-09T11:26:45;27.30;51.70
19174;DHT22;9719;49.322;8.536;2022-09-09T11:32:00;27.10;51.90
19174;DHT22;9719;49.322;8.536;2022-09-09T11:37:16;26.90;51.40
19174;DHT22;9719;49.322;8.536;2022-09-09T11:42:24;26.80;51.60
19174;DHT22;9719;49.322;8.536;2022-09-09T11:47:28;26.70;51.20
19174;DHT22;9719;49.322;8.536;2022-09-09T11:52:38;26.70;51.20
19174;DHT22;9719;49.322;8.536;2022-09-09T11:57:43;26.60;51.20
19174;DHT22;9719;49.322;8.536;2022-09-09T12:02:49;26.60;51.20
19174;DHT22;9719;49.322;8.536;2022-09-09T12:07:56;26.40;50.60
19174;DHT22;9719;49.322;8.536;2022-09-09T12:13:16;26.00;50.50
19174;DHT22;9719;49.322;8.536;2022-09-09T12:18:23;25.50;51.20
19174;DHT22;9719;49.322;8.536;2022-09-09T12:23:32;25.00;52.60
19174;DHT22;9719;49.322;8.536;2022-09-09T12:28:47;24.50;53.80
19174;DHT22;9719;49.322;8.536;2022-09-09T12:33:52;24.10;54.50
19174;DHT22;9719;49.322;8.536;2022-09-09T12:38:54;23.80;55.20
19174;DHT22;9719;49.322;8.536;2022-09-09T12:44:05;24.00;56.10
19174;DHT22;9719;49.322;8.536;2022-09-09T12:49:26;24.40;55.50
19174;DHT22;9719;49.322;8.536;2022-09-09T12:54:29;24.80;55.40
19174;DHT22;9719;49.322;8.536;2022-09-09T12:59:37;25.00;54.80
19174;DHT22;9719;49.322;8.536;2022-09-09T13:04:40;24.90;55.30
19174;DHT22;9719;49.322;8.536;2022-09-09T13:09:43;24.60;54.80
19174;DHT22;9719;49.322;8.536;2022-09-09T13:14:49;24.20;55.10
19174;DHT22;9719;49.322;8.536;2022-09-09T13:19:52;23.80;55.60
19174;DHT22;9719;49.322;8.536;2022-09-09T13:25:04;23.10;56.10
19174;DHT22;9719;49.322;8.536;2022-09-09T13:30:25;22.00;58.30
19174;DHT22;9719;49.322;8.536;2022-09-09T13:35:27;21.00;60.20
19174;DHT22;9719;49.322;8.536;2022-09-09T13:40:29;20.20;63.00
19174;DHT22;9719;49.322;8.536;2022-09-09T13:45:33;19.70;65.10
19174;DHT22;9719;49.322;8.536;2022-09-09T13:50:35;19.50;66.30
19174;DHT22;9719;49.322;8.536;2022-09-09T13:55:37;19.50;67.50
19174;DHT22;9719;49.322;8.536;2022-09-09T14:00:41;19.70;68.10
19174;DHT22;9719;49.322;8.536;2022-09-09T14:05:44;20.10;68.80
19174;DHT22;9719;49.322;8.536;2022-09-09T14:10:46;20.60;69.20
19174;DHT22;9719;49.322;8.536;2022-09-09T14:15:51;21.20;67.60
19174;DHT22;9719;49.322;8.536;2022-09-09T14:20:53;21.60;67.10
19174;DHT22;9719;49.322;8.536;2022-09-09T14:25:55;21.90;66.40
19174;DHT22;9719;49.322;8.536;2022-09-09T14:31:01;22.10;66.40
19174;DHT22;9719;49.322;8.536;2022-09-09T14:36:04;22.40;65.50
19174;DHT22;9719;49.322;8.536;2022-09-09T14:41:06;22.70;65.10
19174;DHT22;9719;49.322;8.536;2022-09-09T14:46:11;22.90;64.90
19174;DHT22;9719;49.322;8.536;2022-09-09T14:51:15;23.00;64.20
19174;DHT22;9719;49.322;8.536;2022-09-09T14:56:18;23.10;63.90
19174;DHT22;9719;49.322;8.536;2022-09-09T15:01:24;22.90;63.80
19174;DHT22;9719;49.322;8.536;2022-09-09T15:06:28;22.80;63.90
19174;DHT22;9719;49.322;8.536;2022-09-09T15:11:34;22.70;64.20
19174;DHT22;9719;49.322;8.536;2022-09-09T15:16:40;22.60;64.40
19174;DHT22;9719;49.322;8.536;2022-09-09T15:21:42;22.50;64.50
19174;DHT22;9719;49.322;8.536;2022-09-09T15:26:44;22.40;65.20
19174;DHT22;9719;49.322;8.536;2022-09-09T15:31:47;22.40;65.20
19174;DHT22;9719;49.322;8.536;2022-09-09T15:36:49;22.30;64.00
19174;DHT22;9719;49.322;8.536;2022-09-09T15:41:51;21.70;65.00
19174;DHT22;9719;49.322;8.536;2022-09-09T15:46:54;21.00;67.30
19174;DHT22;9719;49.322;8.536;2022-09-09T15:51:59;20.60;68.80
19174;DHT22;9719;49.322;8.536;2022-09-09T15:57:05;20.50;69.00
19174;DHT22;9719;49.322;8.536;2022-09-09T16:02:09;20.50;70.00
19174;DHT22;9719;49.322;8.536;2022-09-09T16:07:11;20.50;69.90
19174;DHT22;9719;49.322;8.536;2022-09-09T16:12:14;20.50;70.00
19174;DHT22;9719;49.322;8.536;2022-09-09T16:17:18;20.60;70.60
19174;DHT22;9719;49.322;8.536;2022-09-09T16:22:21;20.50;70.50
19174;DHT22;9719;49.322;8.536;2022-09-09T16:27:24;20.50;70.80
19174;DHT22;9719;49.322;8.536;2022-09-09T16:32:27;20.60;71.20
19174;DHT22;9719;49.322;8.536;2022-09-09T16:37:30;20.60;70.90
19174;DHT22;9719;49.322;8.536;2022-09-09T16:42:34;20.70;71.50
19174;DHT22;9719;49.322;8.536;2022-09-09T16:47:37;20.70;71.50
19174;DHT22;9719;49.322;8.536;2022-09-09T16:52:39;20.70;71.70
19174;DHT22;9719;49.322;8.536;2022-09-09T16:57:41;20.60;72.20
19174;DHT22;9719;49.322;8.536;2022-09-09T17:02:44;20.60;72.40
19174;DHT22;9719;49.322;8.536;2022-09-09T17:07:47;20.70;72.40
19174;DHT22;9719;49.322;8.536;2022-09-09T17:12:48;20.60;72.30
19174;DHT22;9719;49.322;8.536;2022-09-09T17:17:52;20.50;72.80
19174;DHT22;9719;49.322;8.536;2022-09-09T17:22:55;20.30;73.20
19174;DHT22;9719;49.322;8.536;2022-09-09T17:27:56;20.20;73.50
19174;DHT22;9719;49.322;8.536;2022-09-09T17:33:00;20.10;73.80
19174;DHT22;9719;49.322;8.536;2022-09-09T17:38:02;19.90;73.80
19174;DHT22;9719;49.322;8.536;2022-09-09T17:43:04;19.90;74.10
19174;DHT22;9719;49.322;8.536;2022-09-09T17:48:08;19.70;74.10
19174;DHT22;9719;49.322;8.536;2022-09-09T17:53:10;19.60;74.30
19174;DHT22;9719;49.322;8.536;2022-09-09T17:58:13;19.50;74.40
19174;DHT22;9719;49.322;8.536;2022-09-09T18:03:16;19.40;74.50
19174;DHT22;9719;49.322;8.536;2022-09-09T18:08:18;19.40;74.70
19174;DHT22;9719;49.322;8.536;2022-09-09T18:13:20;19.20;74.80
19174;DHT22;9719;49.322;8.536;2022-09-09T18:18:24;19.10;75.10
19174;DHT22;9719;49.322;8.536;2022-09-09T18:23:27;19.10;75.60
19174;DHT22;9719;49.322;8.536;2022-09-09T18:28:30;19.00;75.70
19174;DHT22;9719;49.322;8.536;2022-09-09T18:33:35;19.00;75.80
19174;DHT22;9719;49.322;8.536;2022-09-09T18:38:38;19.00;76.20
19174;DHT22;9719;49.322;8.536;2022-09-09T18:43:41;18.90;76.60
19174;DHT22;9719;49.322;8.536;2022-09-09T18:48:46;18.60;76.30
19174;DHT22;9719;49.322;8.536;2022-09-09T18:53:51;18.10;77.10
19174;DHT22;9719;49.322;8.536;2022-09-09T18:58:56;17.70;78.30
19174;DHT22;9719;49.322;8.536;2022-09-09T19:04:00;17.50;79.00
19174;DHT22;9719;49.322;8.536;2022-09-09T19:09:11;17.40;79.20
19174;DHT22;9719;49.322;8.536;2022-09-09T19:14:23;17.40;79.70
19174;DHT22;9719;49.322;8.536;2022-09-09T19:19:30;17.30;80.00
19174;DHT22;9719;49.322;8.536;2022-09-09T19:24:32;16.10;79.90
19174;DHT22;9719;49.322;8.536;2022-09-09T19:29:36;17.30;80.70
19174;DHT22;9719;49.322;8.536;2022-09-09T20:05:03;17.30;82.60
19174;DHT22;9719;49.322;8.536;2022-09-09T20:10:07;17.10;82.80
19174;DHT22;9719;49.322;8.536;2022-09-09T20:15:09;17.20;82.80
19174;DHT22;9719;49.322;8.536;2022-09-09T20:20:13;17.10;83.10
19174;DHT22;9719;49.322;8.536;2022-09-09T20:25:15;17.20;83.50
19174;DHT22;9719;49.322;8.536;2022-09-09T20:30:17;17.20;83.60
19174;DHT22;9719;49.322;8.536;2022-09-09T20:35:21;17.20;83.70
19174;DHT22;9719;49.322;8.536;2022-09-09T20:40:23;17.30;84.10
19174;DHT22;9719;49.322;8.536;2022-09-09T20:45:25;17.30;84.20
19174;DHT22;9719;49.322;8.536;2022-09-09T20:50:28;17.40;84.50
19174;DHT22;9719;49.322;8.536;2022-09-09T20:55:31;17.40;84.70
19174;DHT22;9719;49.322;8.536;2022-09-09T21:00:33;17.50;84.80
19174;DHT22;9719;49.322;8.536;2022-09-09T21:05:37;17.40;84.90
19174;DHT22;9719;49.322;8.536;2022-09-09T21:10:42;17.50;85.30
19174;DHT22;9719;49.322;8.536;2022-09-09T21:15:45;17.40;85.30
19174;DHT22;9719;49.322;8.536;2022-09-09T21:20:49;17.50;85.40
19174;DHT22;9719;49.322;8.536;2022-09-09T21:25:53;17.40;85.60
19174;DHT22;9719;49.322;8.536;2022-09-09T21:30:55;17.40;85.80
19174;DHT22;9719;49.322;8.536;2022-09-09T21:36:03;17.40;85.90
19174;DHT22;9719;49.322;8.536;2022-09-09T21:41:07;17.30;86.00
19174;DHT22;9719;49.322;8.536;2022-09-09T21:46:11;17.40;86.00
19174;DHT22;9719;49.322;8.536;2022-09-09T21:51:16;17.30;86.20
19174;DHT22;9719;49.322;8.536;2022-09-09T21:56:18;17.20;86.10
19174;DHT22;9719;49.322;8.536;2022-09-09T22:01:20;17.10;86.20
19174;DHT22;9719;49.322;8.536;2022-09-09T22:06:26;17.00;86.40
19174;DHT22;9719;49.322;8.536;2022-09-09T22:11:28;16.90;86.90
19174;DHT22;9719;49.322;8.536;2022-09-09T22:16:30;16.90;87.20
19174;DHT22;9719;49.322;8.536;2022-09-09T22:21:34;16.90;87.40
19174;DHT22;9719;49.322;8.536;2022-09-09T22:26:37;16.80;87.50
19174;DHT22;9719;49.322;8.536;2022-09-09T22:31:39;16.80;87.30
19174;DHT22;9719;49.322;8.536;2022-09-09T22:36:42;16.80;87.50
19174;DHT22;9719;49.322;8.536;2022-09-09T22:41:44;16.80;87.80
19174;DHT22;9719;49.322;8.536;2022-09-09T22:46:47;16.80;87.80
19174;DHT22;9719;49.322;8.536;2022-09-09T22:51:50;16.80;87.90
19174;DHT22;9719;49.322;8.536;2022-09-09T22:56:52;16.80;88.30
19174;DHT22;9719;49.322;8.536;2022-09-09T23:01:54;16.70;88.40
19174;DHT22;9719;49.322;8.536;2022-09-09T23:06:59;16.70;88.60
19174;DHT22;9719;49.322;8.536;2022-09-09T23:12:02;16.70;88.60
19174;DHT22;9719;49.322;8.536;2022-09-09T23:17:04;16.70;88.60
19174;DHT22;9719;49.322;8.536;2022-09-09T23:22:08;16.70;88.80
19174;DHT22;9719;49.322;8.536;2022-09-09T23:27:10;16.60;88.70
19174;DHT22;9719;49.322;8.536;2022-09-09T23:32:12;16.60;88.80
19174;DHT22;9719;49.322;8.536;2022-09-09T23:37:17;16.50;89.00
19174;DHT22;9719;49.322;8.536;2022-09-09T23:42:19;16.50;89.10
19174;DHT22;9719;49.322;8.536;2022-09-09T23:47:21;16.40;89.10
19174;DHT22;9719;49.322;8.536;2022-09-09T23:52:24;16.30;89.20
19174;DHT22;9719;49.322;8.536;2022-09-09T23:57:26;16.30;89.40
